Terminal Aerodrome Forecast
Issued by NWS

Current Version | Previous Version | Text Only | Print | Product List | Glossary Off
Versions: 1 2 3 4 5 6 7 8 9 10 11 12 13 14 15 16

000
FTUS41 KPBZ 071044 AAA
TAFMGW
TAF AMD
KMGW 071044Z 0711/0806 26006KT P6SM OVC025
     FM071500 26007KT P6SM BKN050
     FM071700 26007KT P6SM SCT200=

USA.gov is the U.S. government's official web portal to all federal, state and local government web resources and services.